sensor_id;sensor_type;location;lat;lon;timestamp;P1;durP1;ratioP1;P2;durP2;ratioP2
19059;SDS011;9663;48.996;8.334;2022-08-24T00:01:15;2.70;;;1.17;;
19059;SDS011;9663;48.996;8.334;2022-08-24T00:03:42;7.05;;;1.10;;
19059;SDS011;9663;48.996;8.334;2022-08-24T00:06:11;3.47;;;1.30;;
19059;SDS011;9663;48.996;8.334;2022-08-24T00:08:43;3.33;;;1.40;;
19059;SDS011;9663;48.996;8.334;2022-08-24T00:11:11;2.65;;;1.10;;
19059;SDS011;9663;48.996;8.334;2022-08-24T00:13:38;3.22;;;0.90;;
19059;SDS011;9663;48.996;8.334;2022-08-24T00:16:07;2.88;;;1.10;;
19059;SDS011;9663;48.996;8.334;2022-08-24T00:18:34;4.20;;;1.10;;
19059;SDS011;9663;48.996;8.334;2022-08-24T00:21:00;2.75;;;1.10;;
19059;SDS011;9663;48.996;8.334;2022-08-24T00:23:26;3.15;;;1.15;;
19059;SDS011;9663;48.996;8.334;2022-08-24T00:25:53;3.60;;;1.13;;
19059;SDS011;9663;48.996;8.334;2022-08-24T00:28:19;3.05;;;0.85;;
19059;SDS011;9663;48.996;8.334;2022-08-24T00:30:45;3.00;;;1.10;;
19059;SDS011;9663;48.996;8.334;2022-08-24T00:33:11;2.47;;;1.00;;
19059;SDS011;9663;48.996;8.334;2022-08-24T00:35:36;3.05;;;1.17;;
19059;SDS011;9663;48.996;8.334;2022-08-24T00:38:02;2.33;;;1.02;;
19059;SDS011;9663;48.996;8.334;2022-08-24T00:40:29;2.75;;;1.05;;
19059;SDS011;9663;48.996;8.334;2022-08-24T00:43:01;3.70;;;1.25;;
19059;SDS011;9663;48.996;8.334;2022-08-24T00:45:33;4.28;;;1.15;;
19059;SDS011;9663;48.996;8.334;2022-08-24T00:48:29;3.30;;;1.20;;
19059;SDS011;9663;48.996;8.334;2022-08-24T00:50:59;4.53;;;1.27;;
19059;SDS011;9663;48.996;8.334;2022-08-24T00:53:40;3.50;;;1.13;;
19059;SDS011;9663;48.996;8.334;2022-08-24T00:56:42;2.95;;;0.90;;
19059;SDS011;9663;48.996;8.334;2022-08-24T00:59:06;3.03;;;1.17;;
19059;SDS011;9663;48.996;8.334;2022-08-24T01:01:36;3.10;;;1.30;;
19059;SDS011;9663;48.996;8.334;2022-08-24T01:04:03;3.10;;;1.13;;
19059;SDS011;9663;48.996;8.334;2022-08-24T01:06:32;3.00;;;1.10;;
19059;SDS011;9663;48.996;8.334;2022-08-24T01:08:58;2.88;;;1.10;;
19059;SDS011;9663;48.996;8.334;2022-08-24T01:11:28;2.70;;;1.00;;
19059;SDS011;9663;48.996;8.334;2022-08-24T01:13:55;4.90;;;1.42;;
19059;SDS011;9663;48.996;8.334;2022-08-24T01:16:21;2.72;;;1.05;;
19059;SDS011;9663;48.996;8.334;2022-08-24T01:19:11;2.75;;;1.10;;
19059;SDS011;9663;48.996;8.334;2022-08-24T01:24:56;2.47;;;1.13;;
19059;SDS011;9663;48.996;8.334;2022-08-24T01:27:22;3.30;;;1.00;;
19059;SDS011;9663;48.996;8.334;2022-08-24T01:29:48;2.67;;;0.98;;
19059;SDS011;9663;48.996;8.334;2022-08-24T01:32:17;3.00;;;1.25;;
19059;SDS011;9663;48.996;8.334;2022-08-24T01:34:47;3.10;;;1.30;;
19059;SDS011;9663;48.996;8.334;2022-08-24T01:37:13;2.67;;;1.00;;
19059;SDS011;9663;48.996;8.334;2022-08-24T01:39:41;4.45;;;1.33;;
19059;SDS011;9663;48.996;8.334;2022-08-24T01:42:11;2.67;;;1.00;;
19059;SDS011;9663;48.996;8.334;2022-08-24T01:44:38;3.10;;;1.10;;
19059;SDS011;9663;48.996;8.334;2022-08-24T01:47:07;3.03;;;1.20;;
19059;SDS011;9663;48.996;8.334;2022-08-24T01:49:37;3.47;;;1.20;;
19059;SDS011;9663;48.996;8.334;2022-08-24T01:52:07;3.33;;;1.38;;
19059;SDS011;9663;48.996;8.334;2022-08-24T01:54:37;3.30;;;1.20;;
19059;SDS011;9663;48.996;8.334;2022-08-24T01:57:05;3.53;;;1.20;;
19059;SDS011;9663;48.996;8.334;2022-08-24T01:59:31;2.97;;;1.17;;
19059;SDS011;9663;48.996;8.334;2022-08-24T02:02:00;3.10;;;1.17;;
19059;SDS011;9663;48.996;8.334;2022-08-24T02:04:54;2.80;;;1.20;;
19059;SDS011;9663;48.996;8.334;2022-08-24T02:07:20;3.60;;;1.20;;
19059;SDS011;9663;48.996;8.334;2022-08-24T02:09:47;2.80;;;1.10;;
19059;SDS011;9663;48.996;8.334;2022-08-24T02:12:13;2.88;;;1.33;;
19059;SDS011;9663;48.996;8.334;2022-08-24T02:14:39;3.25;;;1.10;;
19059;SDS011;9663;48.996;8.334;2022-08-24T02:17:06;4.03;;;1.40;;
19059;SDS011;9663;48.996;8.334;2022-08-24T02:19:33;2.83;;;1.08;;
19059;SDS011;9663;48.996;8.334;2022-08-24T02:22:00;3.17;;;1.15;;
19059;SDS011;9663;48.996;8.334;2022-08-24T02:24:26;2.97;;;1.17;;
19059;SDS011;9663;48.996;8.334;2022-08-24T02:26:54;3.75;;;1.45;;
19059;SDS011;9663;48.996;8.334;2022-08-24T02:29:20;2.75;;;1.10;;
19059;SDS011;9663;48.996;8.334;2022-08-24T02:31:46;3.70;;;1.40;;
19059;SDS011;9663;48.996;8.334;2022-08-24T02:34:12;3.40;;;1.30;;
19059;SDS011;9663;48.996;8.334;2022-08-24T02:36:38;5.25;;;1.38;;
19059;SDS011;9663;48.996;8.334;2022-08-24T02:39:05;3.95;;;1.38;;
19059;SDS011;9663;48.996;8.334;2022-08-24T02:41:32;3.55;;;1.20;;
19059;SDS011;9663;48.996;8.334;2022-08-24T02:43:59;3.05;;;1.20;;
19059;SDS011;9663;48.996;8.334;2022-08-24T02:46:26;3.40;;;1.35;;
19059;SDS011;9663;48.996;8.334;2022-08-24T02:48:54;2.60;;;1.05;;
19059;SDS011;9663;48.996;8.334;2022-08-24T02:51:27;3.40;;;1.40;;
19059;SDS011;9663;48.996;8.334;2022-08-24T02:53:57;2.92;;;1.13;;
19059;SDS011;9663;48.996;8.334;2022-08-24T02:56:24;3.90;;;1.20;;
19059;SDS011;9663;48.996;8.334;2022-08-24T02:58:54;3.22;;;1.23;;
19059;SDS011;9663;48.996;8.334;2022-08-24T03:01:21;3.50;;;1.30;;
19059;SDS011;9663;48.996;8.334;2022-08-24T03:03:48;3.22;;;1.20;;
19059;SDS011;9663;48.996;8.334;2022-08-24T03:06:14;2.78;;;1.05;;
19059;SDS011;9663;48.996;8.334;2022-08-24T03:08:40;3.05;;;1.20;;
19059;SDS011;9663;48.996;8.334;2022-08-24T03:11:06;4.18;;;1.30;;
19059;SDS011;9663;48.996;8.334;2022-08-24T03:13:32;2.83;;;1.33;;
19059;SDS011;9663;48.996;8.334;2022-08-24T03:15:59;3.05;;;1.20;;
19059;SDS011;9663;48.996;8.334;2022-08-24T03:18:25;3.30;;;1.30;;
19059;SDS011;9663;48.996;8.334;2022-08-24T03:20:52;4.20;;;1.40;;
19059;SDS011;9663;48.996;8.334;2022-08-24T03:23:20;3.33;;;1.30;;
19059;SDS011;9663;48.996;8.334;2022-08-24T03:25:48;2.90;;;1.10;;
19059;SDS011;9663;48.996;8.334;2022-08-24T03:28:16;3.60;;;1.48;;
19059;SDS011;9663;48.996;8.334;2022-08-24T03:30:44;3.53;;;1.27;;
19059;SDS011;9663;48.996;8.334;2022-08-24T03:33:10;2.72;;;1.17;;
19059;SDS011;9663;48.996;8.334;2022-08-24T03:35:36;4.38;;;1.33;;
19059;SDS011;9663;48.996;8.334;2022-08-24T03:38:03;3.92;;;1.40;;
19059;SDS011;9663;48.996;8.334;2022-08-24T03:40:29;4.13;;;1.60;;
19059;SDS011;9663;48.996;8.334;2022-08-24T03:42:57;2.83;;;1.20;;
19059;SDS011;9663;48.996;8.334;2022-08-24T03:45:25;4.05;;;1.30;;
19059;SDS011;9663;48.996;8.334;2022-08-24T03:47:52;3.33;;;1.20;;
19059;SDS011;9663;48.996;8.334;2022-08-24T03:50:19;4.53;;;1.40;;
19059;SDS011;9663;48.996;8.334;2022-08-24T03:52:46;3.13;;;1.30;;
19059;SDS011;9663;48.996;8.334;2022-08-24T03:55:13;3.70;;;1.52;;
19059;SDS011;9663;48.996;8.334;2022-08-24T03:57:39;4.25;;;1.65;;
19059;SDS011;9663;48.996;8.334;2022-08-24T04:00:06;3.53;;;1.20;;
19059;SDS011;9663;48.996;8.334;2022-08-24T04:02:35;4.68;;;1.65;;
19059;SDS011;9663;48.996;8.334;2022-08-24T04:05:02;3.25;;;1.30;;
19059;SDS011;9663;48.996;8.334;2022-08-24T04:07:31;4.07;;;1.40;;
19059;SDS011;9663;48.996;8.334;2022-08-24T04:09:57;3.25;;;1.30;;
19059;SDS011;9663;48.996;8.334;2022-08-24T04:12:24;3.70;;;1.42;;
19059;SDS011;9663;48.996;8.334;2022-08-24T04:14:51;3.80;;;1.80;;
19059;SDS011;9663;48.996;8.334;2022-08-24T04:17:19;4.22;;;1.40;;
19059;SDS011;9663;48.996;8.334;2022-08-24T04:19:45;3.83;;;1.38;;
19059;SDS011;9663;48.996;8.334;2022-08-24T04:22:24;3.88;;;1.35;;
19059;SDS011;9663;48.996;8.334;2022-08-24T04:24:55;3.85;;;1.75;;
19059;SDS011;9663;48.996;8.334;2022-08-24T04:27:21;3.10;;;1.30;;
19059;SDS011;9663;48.996;8.334;2022-08-24T04:29:47;3.90;;;1.52;;
19059;SDS011;9663;48.996;8.334;2022-08-24T04:32:13;3.72;;;1.35;;
19059;SDS011;9663;48.996;8.334;2022-08-24T04:34:40;6.00;;;1.50;;
19059;SDS011;9663;48.996;8.334;2022-08-24T04:37:09;3.08;;;1.30;;
19059;SDS011;9663;48.996;8.334;2022-08-24T04:39:36;4.00;;;1.63;;
19059;SDS011;9663;48.996;8.334;2022-08-24T04:42:02;3.03;;;1.45;;
19059;SDS011;9663;48.996;8.334;2022-08-24T04:44:29;3.90;;;1.67;;
19059;SDS011;9663;48.996;8.334;2022-08-24T04:46:56;3.40;;;1.40;;
19059;SDS011;9663;48.996;8.334;2022-08-24T04:49:21;3.20;;;1.40;;
19059;SDS011;9663;48.996;8.334;2022-08-24T04:51:47;4.53;;;1.52;;
19059;SDS011;9663;48.996;8.334;2022-08-24T04:54:12;3.80;;;1.42;;
19059;SDS011;9663;48.996;8.334;2022-08-24T04:56:38;3.95;;;1.65;;
19059;SDS011;9663;48.996;8.334;2022-08-24T04:59:04;3.90;;;1.65;;
19059;SDS011;9663;48.996;8.334;2022-08-24T05:01:30;3.42;;;1.50;;
19059;SDS011;9663;48.996;8.334;2022-08-24T05:03:56;3.40;;;1.42;;
19059;SDS011;9663;48.996;8.334;2022-08-24T05:06:24;3.80;;;1.52;;
19059;SDS011;9663;48.996;8.334;2022-08-24T05:08:53;3.53;;;1.52;;
19059;SDS011;9663;48.996;8.334;2022-08-24T05:11:19;2.92;;;1.30;;
19059;SDS011;9663;48.996;8.334;2022-08-24T05:13:46;3.50;;;1.42;;
19059;SDS011;9663;48.996;8.334;2022-08-24T05:16:15;3.80;;;1.63;;
19059;SDS011;9663;48.996;8.334;2022-08-24T05:18:41;4.00;;;1.50;;
19059;SDS011;9663;48.996;8.334;2022-08-24T05:21:10;3.45;;;1.40;;
19059;SDS011;9663;48.996;8.334;2022-08-24T05:23:38;3.90;;;1.52;;
19059;SDS011;9663;48.996;8.334;2022-08-24T05:26:27;4.00;;;1.33;;
19059;SDS011;9663;48.996;8.334;2022-08-24T05:28:53;3.22;;;1.48;;
19059;SDS011;9663;48.996;8.334;2022-08-24T05:31:27;6.10;;;1.40;;
19059;SDS011;9663;48.996;8.334;2022-08-24T05:33:56;3.42;;;1.40;;
19059;SDS011;9663;48.996;8.334;2022-08-24T05:38:55;4.07;;;1.50;;
19059;SDS011;9663;48.996;8.334;2022-08-24T05:41:25;3.17;;;1.38;;
19059;SDS011;9663;48.996;8.334;2022-08-24T05:43:51;3.30;;;1.30;;
19059;SDS011;9663;48.996;8.334;2022-08-24T05:46:18;3.42;;;1.30;;
19059;SDS011;9663;48.996;8.334;2022-08-24T05:48:44;3.30;;;1.40;;
19059;SDS011;9663;48.996;8.334;2022-08-24T05:51:10;3.83;;;1.38;;
19059;SDS011;9663;48.996;8.334;2022-08-24T05:53:37;3.65;;;1.30;;
19059;SDS011;9663;48.996;8.334;2022-08-24T05:56:04;4.22;;;1.88;;
19059;SDS011;9663;48.996;8.334;2022-08-24T05:58:34;3.00;;;1.38;;
19059;SDS011;9663;48.996;8.334;2022-08-24T06:01:06;5.55;;;1.73;;
19059;SDS011;9663;48.996;8.334;2022-08-24T06:03:39;4.07;;;1.45;;
19059;SDS011;9663;48.996;8.334;2022-08-24T06:06:06;3.25;;;1.40;;
19059;SDS011;9663;48.996;8.334;2022-08-24T06:08:34;4.10;;;1.58;;
19059;SDS011;9663;48.996;8.334;2022-08-24T06:11:01;3.80;;;1.55;;
19059;SDS011;9663;48.996;8.334;2022-08-24T06:13:27;3.58;;;1.55;;
19059;SDS011;9663;48.996;8.334;2022-08-24T06:16:10;3.53;;;1.52;;
19059;SDS011;9663;48.996;8.334;2022-08-24T06:18:38;3.25;;;1.30;;
19059;SDS011;9663;48.996;8.334;2022-08-24T06:21:09;4.35;;;2.05;;
19059;SDS011;9663;48.996;8.334;2022-08-24T06:23:38;3.72;;;1.42;;
19059;SDS011;9663;48.996;8.334;2022-08-24T06:26:05;4.35;;;1.70;;
19059;SDS011;9663;48.996;8.334;2022-08-24T06:28:51;4.45;;;1.40;;
19059;SDS011;9663;48.996;8.334;2022-08-24T06:31:18;3.85;;;1.42;;
19059;SDS011;9663;48.996;8.334;2022-08-24T06:33:44;3.28;;;1.30;;
19059;SDS011;9663;48.996;8.334;2022-08-24T06:36:11;3.50;;;1.38;;
19059;SDS011;9663;48.996;8.334;2022-08-24T06:38:38;3.42;;;1.30;;
19059;SDS011;9663;48.996;8.334;2022-08-24T06:41:04;3.88;;;1.30;;
19059;SDS011;9663;48.996;8.334;2022-08-24T06:43:31;3.45;;;1.40;;
19059;SDS011;9663;48.996;8.334;2022-08-24T06:45:57;4.55;;;1.50;;
19059;SDS011;9663;48.996;8.334;2022-08-24T06:48:24;3.72;;;1.40;;
19059;SDS011;9663;48.996;8.334;2022-08-24T06:50:50;4.32;;;1.70;;
19059;SDS011;9663;48.996;8.334;2022-08-24T06:53:17;3.67;;;1.50;;
19059;SDS011;9663;48.996;8.334;2022-08-24T06:55:44;3.78;;;1.38;;
19059;SDS011;9663;48.996;8.334;2022-08-24T06:58:10;4.50;;;1.60;;
19059;SDS011;9663;48.996;8.334;2022-08-24T07:00:36;3.78;;;1.50;;
19059;SDS011;9663;48.996;8.334;2022-08-24T07:03:01;3.72;;;1.30;;
19059;SDS011;9663;48.996;8.334;2022-08-24T07:05:27;2.90;;;1.20;;
19059;SDS011;9663;48.996;8.334;2022-08-24T07:07:53;4.63;;;1.63;;
19059;SDS011;9663;48.996;8.334;2022-08-24T07:10:18;3.42;;;1.45;;
19059;SDS011;9663;48.996;8.334;2022-08-24T07:12:44;3.45;;;1.50;;
19059;SDS011;9663;48.996;8.334;2022-08-24T07:15:10;3.90;;;1.40;;
19059;SDS011;9663;48.996;8.334;2022-08-24T07:17:36;3.35;;;1.30;;
19059;SDS011;9663;48.996;8.334;2022-08-24T07:20:02;3.28;;;1.23;;
19059;SDS011;9663;48.996;8.334;2022-08-24T07:22:28;3.35;;;1.10;;
19059;SDS011;9663;48.996;8.334;2022-08-24T07:24:54;4.10;;;1.50;;
19059;SDS011;9663;48.996;8.334;2022-08-24T07:27:19;2.75;;;1.20;;
19059;SDS011;9663;48.996;8.334;2022-08-24T07:29:47;2.63;;;1.15;;
19059;SDS011;9663;48.996;8.334;2022-08-24T07:32:12;3.28;;;1.30;;
19059;SDS011;9663;48.996;8.334;2022-08-24T07:34:38;3.85;;;1.45;;
19059;SDS011;9663;48.996;8.334;2022-08-24T07:37:04;4.35;;;1.30;;
19059;SDS011;9663;48.996;8.334;2022-08-24T07:39:31;3.10;;;1.42;;
19059;SDS011;9663;48.996;8.334;2022-08-24T07:41:57;3.33;;;1.27;;
19059;SDS011;9663;48.996;8.334;2022-08-24T07:44:23;2.97;;;1.10;;
19059;SDS011;9663;48.996;8.334;2022-08-24T07:46:49;3.25;;;1.27;;
19059;SDS011;9663;48.996;8.334;2022-08-24T07:49:15;3.40;;;1.40;;
19059;SDS011;9663;48.996;8.334;2022-08-24T07:51:40;3.15;;;1.23;;
19059;SDS011;9663;48.996;8.334;2022-08-24T07:54:06;4.25;;;1.45;;
19059;SDS011;9663;48.996;8.334;2022-08-24T07:56:32;2.83;;;1.17;;
19059;SDS011;9663;48.996;8.334;2022-08-24T07:58:58;2.83;;;1.15;;
19059;SDS011;9663;48.996;8.334;2022-08-24T08:01:24;4.38;;;1.20;;
19059;SDS011;9663;48.996;8.334;2022-08-24T08:03:51;2.92;;;1.15;;
19059;SDS011;9663;48.996;8.334;2022-08-24T08:06:17;4.57;;;1.27;;
19059;SDS011;9663;48.996;8.334;2022-08-24T08:08:43;2.55;;;1.02;;
19059;SDS011;9663;48.996;8.334;2022-08-24T08:11:09;4.05;;;1.42;;
19059;SDS011;9663;48.996;8.334;2022-08-24T08:13:36;3.15;;;1.40;;
19059;SDS011;9663;48.996;8.334;2022-08-24T08:16:02;3.30;;;1.35;;
19059;SDS011;9663;48.996;8.334;2022-08-24T08:18:29;3.13;;;1.20;;
19059;SDS011;9663;48.996;8.334;2022-08-24T08:20:55;4.35;;;1.10;;
19059;SDS011;9663;48.996;8.334;2022-08-24T08:23:21;3.53;;;1.30;;
19059;SDS011;9663;48.996;8.334;2022-08-24T08:26:06;4.65;;;1.38;;
19059;SDS011;9663;48.996;8.334;2022-08-24T08:28:41;3.75;;;1.17;;
19059;SDS011;9663;48.996;8.334;2022-08-24T08:31:06;3.03;;;1.23;;
19059;SDS011;9663;48.996;8.334;2022-08-24T08:33:32;2.92;;;1.00;;
19059;SDS011;9663;48.996;8.334;2022-08-24T08:36:07;3.63;;;1.20;;
19059;SDS011;9663;48.996;8.334;2022-08-24T08:38:38;3.78;;;1.42;;
19059;SDS011;9663;48.996;8.334;2022-08-24T08:43:42;2.78;;;0.90;;
19059;SDS011;9663;48.996;8.334;2022-08-24T08:57:44;4.10;;;1.20;;
19059;SDS011;9663;48.996;8.334;2022-08-24T09:06:12;2.47;;;1.00;;
19059;SDS011;9663;48.996;8.334;2022-08-24T09:30:23;2.50;;;0.90;;
19059;SDS011;9663;48.996;8.334;2022-08-24T09:51:08;2.00;;;0.75;;
19059;SDS011;9663;48.996;8.334;2022-08-24T09:57:06;2.17;;;0.90;;
19059;SDS011;9663;48.996;8.334;2022-08-24T10:03:24;2.50;;;0.90;;
19059;SDS011;9663;48.996;8.334;2022-08-24T10:06:32;2.10;;;0.90;;
19059;SDS011;9663;48.996;8.334;2022-08-24T10:13:19;2.80;;;0.95;;
19059;SDS011;9663;48.996;8.334;2022-08-24T10:19:00;2.30;;;0.90;;
19059;SDS011;9663;48.996;8.334;2022-08-24T10:24:59;3.92;;;1.00;;
19059;SDS011;9663;48.996;8.334;2022-08-24T10:31:00;1.60;;;0.60;;
19059;SDS011;9663;48.996;8.334;2022-08-24T10:33:35;1.77;;;0.75;;
19059;SDS011;9663;48.996;8.334;2022-08-24T10:53:37;2.20;;;0.80;;
19059;SDS011;9663;48.996;8.334;2022-08-24T11:01:13;1.48;;;0.60;;
19059;SDS011;9663;48.996;8.334;2022-08-24T11:04:12;2.10;;;0.77;;
19059;SDS011;9663;48.996;8.334;2022-08-24T11:12:21;1.80;;;0.70;;
19059;SDS011;9663;48.996;8.334;2022-08-24T11:17:52;1.90;;;0.80;;
19059;SDS011;9663;48.996;8.334;2022-08-24T11:20:32;3.17;;;1.00;;
19059;SDS011;9663;48.996;8.334;2022-08-24T11:23:41;2.35;;;0.93;;
19059;SDS011;9663;48.996;8.334;2022-08-24T11:26:20;2.70;;;1.08;;
19059;SDS011;9663;48.996;8.334;2022-08-24T11:28:51;2.20;;;0.93;;
19059;SDS011;9663;48.996;8.334;2022-08-24T11:31:30;2.97;;;1.20;;
19059;SDS011;9663;48.996;8.334;2022-08-24T11:34:18;2.85;;;1.10;;
19059;SDS011;9663;48.996;8.334;2022-08-24T11:36:57;2.15;;;0.98;;
19059;SDS011;9663;48.996;8.334;2022-08-24T11:39:25;2.28;;;0.98;;
19059;SDS011;9663;48.996;8.334;2022-08-24T11:41:59;2.72;;;1.17;;
19059;SDS011;9663;48.996;8.334;2022-08-24T11:44:58;2.78;;;1.10;;
19059;SDS011;9663;48.996;8.334;2022-08-24T11:53:46;2.90;;;1.13;;
19059;SDS011;9663;48.996;8.334;2022-08-24T11:56:39;2.42;;;0.98;;
19059;SDS011;9663;48.996;8.334;2022-08-24T11:59:48;2.45;;;1.00;;
19059;SDS011;9663;48.996;8.334;2022-08-24T12:11:06;2.28;;;0.98;;
19059;SDS011;9663;48.996;8.334;2022-08-24T12:13:53;2.08;;;0.98;;
19059;SDS011;9663;48.996;8.334;2022-08-24T12:16:58;2.75;;;0.90;;
19059;SDS011;9663;48.996;8.334;2022-08-24T12:19:39;3.40;;;1.20;;
19059;SDS011;9663;48.996;8.334;2022-08-24T12:22:19;2.15;;;0.82;;
19059;SDS011;9663;48.996;8.334;2022-08-24T12:24:48;1.70;;;0.80;;
19059;SDS011;9663;48.996;8.334;2022-08-24T12:27:21;2.10;;;0.90;;
19059;SDS011;9663;48.996;8.334;2022-08-24T12:30:02;2.90;;;1.20;;
19059;SDS011;9663;48.996;8.334;2022-08-24T12:35:18;2.45;;;1.10;;
19059;SDS011;9663;48.996;8.334;2022-08-24T12:40:39;2.58;;;1.20;;
19059;SDS011;9663;48.996;8.334;2022-08-24T12:46:51;4.68;;;1.05;;
19059;SDS011;9663;48.996;8.334;2022-08-24T12:49:21;3.08;;;1.40;;
19059;SDS011;9663;48.996;8.334;2022-08-24T12:54:55;3.10;;;1.50;;
19059;SDS011;9663;48.996;8.334;2022-08-24T13:00:34;3.00;;;1.30;;
19059;SDS011;9663;48.996;8.334;2022-08-24T13:03:22;3.88;;;1.00;;
19059;SDS011;9663;48.996;8.334;2022-08-24T13:05:59;4.68;;;1.35;;
19059;SDS011;9663;48.996;8.334;2022-08-24T13:08:34;2.15;;;0.93;;
19059;SDS011;9663;48.996;8.334;2022-08-24T13:30:07;3.30;;;1.25;;
19059;SDS011;9663;48.996;8.334;2022-08-24T13:32:48;2.92;;;1.35;;
19059;SDS011;9663;48.996;8.334;2022-08-24T13:40:49;2.55;;;1.00;;
19059;SDS011;9663;48.996;8.334;2022-08-24T13:43:57;2.53;;;1.02;;
19059;SDS011;9663;48.996;8.334;2022-08-24T13:46:40;3.05;;;1.02;;
19059;SDS011;9663;48.996;8.334;2022-08-24T14:05:08;1.90;;;1.00;;
19059;SDS011;9663;48.996;8.334;2022-08-24T14:07:29;2.33;;;1.00;;
19059;SDS011;9663;48.996;8.334;2022-08-24T14:13:03;3.10;;;1.20;;
19059;SDS011;9663;48.996;8.334;2022-08-24T14:21:52;2.85;;;1.10;;
19059;SDS011;9663;48.996;8.334;2022-08-24T14:24:26;2.63;;;1.20;;
19059;SDS011;9663;48.996;8.334;2022-08-24T14:29:53;4.22;;;1.10;;
19059;SDS011;9663;48.996;8.334;2022-08-24T14:43:51;2.40;;;1.10;;
19059;SDS011;9663;48.996;8.334;2022-08-24T14:46:43;2.45;;;1.20;;
19059;SDS011;9663;48.996;8.334;2022-08-24T14:58:27;2.95;;;1.20;;
19059;SDS011;9663;48.996;8.334;2022-08-24T15:09:26;2.05;;;1.00;;
19059;SDS011;9663;48.996;8.334;2022-08-24T15:15:03;2.30;;;1.20;;
19059;SDS011;9663;48.996;8.334;2022-08-24T15:17:40;2.35;;;1.20;;
19059;SDS011;9663;48.996;8.334;2022-08-24T15:26:26;3.28;;;1.40;;
19059;SDS011;9663;48.996;8.334;2022-08-24T15:29:13;2.00;;;1.08;;
19059;SDS011;9663;48.996;8.334;2022-08-24T15:31:57;2.58;;;1.20;;
19059;SDS011;9663;48.996;8.334;2022-08-24T15:34:46;2.70;;;1.10;;
19059;SDS011;9663;48.996;8.334;2022-08-24T15:37:26;2.47;;;1.15;;
19059;SDS011;9663;48.996;8.334;2022-08-24T15:39:59;2.25;;;1.27;;
19059;SDS011;9663;48.996;8.334;2022-08-24T15:42:40;2.28;;;1.20;;
19059;SDS011;9663;48.996;8.334;2022-08-24T15:45:07;2.60;;;1.30;;
19059;SDS011;9663;48.996;8.334;2022-08-24T15:47:35;2.20;;;1.13;;
19059;SDS011;9663;48.996;8.334;2022-08-24T15:50:18;2.03;;;1.10;;
19059;SDS011;9663;48.996;8.334;2022-08-24T15:55:41;1.92;;;1.02;;
19059;SDS011;9663;48.996;8.334;2022-08-24T16:01:20;4.85;;;1.10;;
19059;SDS011;9663;48.996;8.334;2022-08-24T16:04:12;2.28;;;1.05;;
19059;SDS011;9663;48.996;8.334;2022-08-24T16:07:10;2.20;;;1.00;;
19059;SDS011;9663;48.996;8.334;2022-08-24T16:09:38;2.25;;;1.20;;
19059;SDS011;9663;48.996;8.334;2022-08-24T16:12:10;2.92;;;1.10;;
19059;SDS011;9663;48.996;8.334;2022-08-24T16:14:45;2.00;;;0.90;;
19059;SDS011;9663;48.996;8.334;2022-08-24T16:20:00;3.00;;;1.30;;
19059;SDS011;9663;48.996;8.334;2022-08-24T16:22:47;3.03;;;1.40;;
19059;SDS011;9663;48.996;8.334;2022-08-24T16:25:21;2.42;;;1.00;;
19059;SDS011;9663;48.996;8.334;2022-08-24T16:30:41;2.28;;;0.93;;
19059;SDS011;9663;48.996;8.334;2022-08-24T16:35:57;2.65;;;0.90;;
19059;SDS011;9663;48.996;8.334;2022-08-24T16:38:29;1.77;;;0.80;;
19059;SDS011;9663;48.996;8.334;2022-08-24T16:40:58;2.15;;;0.98;;
19059;SDS011;9663;48.996;8.334;2022-08-24T16:43:32;2.72;;;1.00;;
19059;SDS011;9663;48.996;8.334;2022-08-24T16:45:59;2.13;;;0.90;;
19059;SDS011;9663;48.996;8.334;2022-08-24T16:48:27;2.80;;;0.90;;
19059;SDS011;9663;48.996;8.334;2022-08-24T16:50:53;3.30;;;0.90;;
19059;SDS011;9663;48.996;8.334;2022-08-24T16:53:20;2.75;;;0.88;;
19059;SDS011;9663;48.996;8.334;2022-08-24T16:55:46;2.88;;;0.90;;
19059;SDS011;9663;48.996;8.334;2022-08-24T16:58:12;2.53;;;0.80;;
19059;SDS011;9663;48.996;8.334;2022-08-24T17:00:39;2.90;;;0.70;;
19059;SDS011;9663;48.996;8.334;2022-08-24T17:03:06;2.78;;;1.10;;
19059;SDS011;9663;48.996;8.334;2022-08-24T17:05:32;1.50;;;0.70;;
19059;SDS011;9663;48.996;8.334;2022-08-24T17:07:58;2.50;;;0.80;;
19059;SDS011;9663;48.996;8.334;2022-08-24T17:10:25;2.85;;;1.02;;
19059;SDS011;9663;48.996;8.334;2022-08-24T17:12:52;1.92;;;0.80;;
19059;SDS011;9663;48.996;8.334;2022-08-24T17:15:18;2.20;;;0.77;;
19059;SDS011;9663;48.996;8.334;2022-08-24T17:17:52;3.15;;;0.80;;
19059;SDS011;9663;48.996;8.334;2022-08-24T17:20:23;1.58;;;0.70;;
19059;SDS011;9663;48.996;8.334;2022-08-24T17:22:49;2.00;;;0.80;;
19059;SDS011;9663;48.996;8.334;2022-08-24T17:25:15;3.78;;;0.98;;
19059;SDS011;9663;48.996;8.334;2022-08-24T17:27:42;2.42;;;1.00;;
19059;SDS011;9663;48.996;8.334;2022-08-24T17:30:09;1.83;;;0.82;;
19059;SDS011;9663;48.996;8.334;2022-08-24T17:32:35;1.75;;;0.70;;
19059;SDS011;9663;48.996;8.334;2022-08-24T17:35:01;1.55;;;0.75;;
19059;SDS011;9663;48.996;8.334;2022-08-24T17:37:28;2.67;;;1.05;;
19059;SDS011;9663;48.996;8.334;2022-08-24T17:39:55;2.30;;;1.00;;
19059;SDS011;9663;48.996;8.334;2022-08-24T17:42:22;1.50;;;0.70;;
19059;SDS011;9663;48.996;8.334;2022-08-24T17:44:48;1.70;;;0.70;;
19059;SDS011;9663;48.996;8.334;2022-08-24T17:47:14;1.80;;;0.80;;
19059;SDS011;9663;48.996;8.334;2022-08-24T17:49:41;2.58;;;1.10;;
19059;SDS011;9663;48.996;8.334;2022-08-24T17:52:07;2.38;;;0.90;;
19059;SDS011;9663;48.996;8.334;2022-08-24T17:54:33;2.35;;;0.90;;
19059;SDS011;9663;48.996;8.334;2022-08-24T17:56:59;2.10;;;0.80;;
19059;SDS011;9663;48.996;8.334;2022-08-24T17:59:27;2.10;;;0.80;;
19059;SDS011;9663;48.996;8.334;2022-08-24T18:01:57;2.30;;;0.90;;
19059;SDS011;9663;48.996;8.334;2022-08-24T18:04:28;2.53;;;0.90;;
19059;SDS011;9663;48.996;8.334;2022-08-24T18:06:57;2.22;;;0.90;;
19059;SDS011;9663;48.996;8.334;2022-08-24T18:09:34;2.38;;;1.00;;
19059;SDS011;9663;48.996;8.334;2022-08-24T18:12:05;1.67;;;0.80;;
19059;SDS011;9663;48.996;8.334;2022-08-24T18:14:32;1.95;;;0.82;;
19059;SDS011;9663;48.996;8.334;2022-08-24T18:17:07;2.30;;;0.80;;
19059;SDS011;9663;48.996;8.334;2022-08-24T18:19:41;1.75;;;0.80;;
19059;SDS011;9663;48.996;8.334;2022-08-24T18:22:09;2.78;;;1.10;;
19059;SDS011;9663;48.996;8.334;2022-08-24T18:24:35;3.55;;;1.20;;
19059;SDS011;9663;48.996;8.334;2022-08-24T18:27:11;3.38;;;1.02;;
19059;SDS011;9663;48.996;8.334;2022-08-24T18:29:43;2.10;;;0.82;;
19059;SDS011;9663;48.996;8.334;2022-08-24T18:32:10;2.25;;;0.80;;
19059;SDS011;9663;48.996;8.334;2022-08-24T18:34:37;1.92;;;0.80;;
19059;SDS011;9663;48.996;8.334;2022-08-24T18:37:04;2.15;;;0.85;;
19059;SDS011;9663;48.996;8.334;2022-08-24T18:39:31;2.55;;;0.70;;
19059;SDS011;9663;48.996;8.334;2022-08-24T18:41:57;2.10;;;0.88;;
19059;SDS011;9663;48.996;8.334;2022-08-24T18:44:26;2.05;;;0.80;;
19059;SDS011;9663;48.996;8.334;2022-08-24T18:46:52;2.22;;;0.90;;
19059;SDS011;9663;48.996;8.334;2022-08-24T18:49:19;2.05;;;0.70;;
19059;SDS011;9663;48.996;8.334;2022-08-24T18:51:45;2.75;;;0.95;;
19059;SDS011;9663;48.996;8.334;2022-08-24T18:54:17;3.10;;;0.98;;
19059;SDS011;9663;48.996;8.334;2022-08-24T18:56:50;2.40;;;0.80;;
19059;SDS011;9663;48.996;8.334;2022-08-24T18:59:18;2.40;;;0.85;;
19059;SDS011;9663;48.996;8.334;2022-08-24T19:01:46;2.67;;;0.80;;
19059;SDS011;9663;48.996;8.334;2022-08-24T19:04:36;1.80;;;0.75;;
19059;SDS011;9663;48.996;8.334;2022-08-24T19:07:09;1.77;;;0.80;;
19059;SDS011;9663;48.996;8.334;2022-08-24T19:09:35;2.53;;;0.90;;
19059;SDS011;9663;48.996;8.334;2022-08-24T19:12:02;1.58;;;0.70;;
19059;SDS011;9663;48.996;8.334;2022-08-24T19:14:29;2.85;;;1.20;;
19059;SDS011;9663;48.996;8.334;2022-08-24T19:16:55;3.38;;;1.20;;
19059;SDS011;9663;48.996;8.334;2022-08-24T19:19:21;3.07;;;1.40;;
19059;SDS011;9663;48.996;8.334;2022-08-24T19:21:47;2.60;;;1.00;;
19059;SDS011;9663;48.996;8.334;2022-08-24T19:24:13;2.83;;;1.05;;
19059;SDS011;9663;48.996;8.334;2022-08-24T19:26:44;2.67;;;1.10;;
19059;SDS011;9663;48.996;8.334;2022-08-24T19:29:10;2.70;;;1.08;;
19059;SDS011;9663;48.996;8.334;2022-08-24T19:31:36;2.25;;;0.90;;
19059;SDS011;9663;48.996;8.334;2022-08-24T19:34:02;2.38;;;0.90;;